sensor_id;sensor_type;location;lat;lon;timestamp;pressure;altitude;pressure_sealevel;temperature;humidity
59417;BME280;45222;52.458;20.914;2023-02-23T00:03:08;101271.02;;;-1.35;69.29
59417;BME280;45222;52.458;20.914;2023-02-23T00:06:53;101264.85;;;-1.39;68.86
59417;BME280;45222;52.458;20.914;2023-02-23T00:10:38;101262.35;;;-1.42;69.19
59417;BME280;45222;52.458;20.914;2023-02-23T00:14:26;101262.20;;;-1.40;69.19
59417;BME280;45222;52.458;20.914;2023-02-23T00:18:11;101260.41;;;-1.43;68.94
59417;BME280;45222;52.458;20.914;2023-02-23T00:22:00;101252.55;;;-1.45;69.06
59417;BME280;45222;52.458;20.914;2023-02-23T00:25:45;101251.27;;;-1.48;68.99
59417;BME280;45222;52.458;20.914;2023-02-23T00:29:30;101255.36;;;-1.54;68.37
59417;BME280;45222;52.458;20.914;2023-02-23T00:33:21;101255.29;;;-1.60;68.71
59417;BME280;45222;52.458;20.914;2023-02-23T00:37:06;101255.73;;;-1.65;68.42
59417;BME280;45222;52.458;20.914;2023-02-23T00:40:52;101255.11;;;-1.71;68.14
59417;BME280;45222;52.458;20.914;2023-02-23T00:44:37;101256.45;;;-1.74;67.56
59417;BME280;45222;52.458;20.914;2023-02-23T00:48:24;101249.49;;;-1.73;67.71
59417;BME280;45222;52.458;20.914;2023-02-23T00:52:09;101244.21;;;-1.76;68.23
59417;BME280;45222;52.458;20.914;2023-02-23T00:55:54;101241.36;;;-1.80;67.67
59417;BME280;45222;52.458;20.914;2023-02-23T00:59:40;101237.95;;;-1.85;67.57
59417;BME280;45222;52.458;20.914;2023-02-23T01:03:25;101231.11;;;-1.89;67.38
59417;BME280;45222;52.458;20.914;2023-02-23T01:07:10;101230.13;;;-1.95;67.24
59417;BME280;45222;52.458;20.914;2023-02-23T01:10:56;101228.66;;;-2.00;67.26
59417;BME280;45222;52.458;20.914;2023-02-23T01:14:41;101223.81;;;-2.08;67.60
59417;BME280;45222;52.458;20.914;2023-02-23T01:18:26;101221.59;;;-2.16;67.71
59417;BME280;45222;52.458;20.914;2023-02-23T01:22:11;101219.75;;;-2.21;68.02
59417;BME280;45222;52.458;20.914;2023-02-23T01:25:56;101215.48;;;-2.27;67.96
59417;BME280;45222;52.458;20.914;2023-02-23T01:29:41;101219.68;;;-2.35;68.25
59417;BME280;45222;52.458;20.914;2023-02-23T01:33:26;101220.98;;;-2.41;68.36
59417;BME280;45222;52.458;20.914;2023-02-23T01:37:11;101220.27;;;-2.41;68.38
59417;BME280;45222;52.458;20.914;2023-02-23T01:40:58;101214.27;;;-2.46;68.41
59417;BME280;45222;52.458;20.914;2023-02-23T01:49:02;101210.20;;;-2.49;68.57
59417;BME280;45222;52.458;20.914;2023-02-23T01:52:50;101209.11;;;-2.51;68.68
59417;BME280;45222;52.458;20.914;2023-02-23T01:56:41;101204.44;;;-2.50;68.70
59417;BME280;45222;52.458;20.914;2023-02-23T02:00:28;101200.98;;;-2.48;68.80
59417;BME280;45222;52.458;20.914;2023-02-23T02:04:20;101205.13;;;-2.40;69.27
59417;BME280;45222;52.458;20.914;2023-02-23T02:08:07;101203.48;;;-2.26;69.86
59417;BME280;45222;52.458;20.914;2023-02-23T02:11:53;101202.95;;;-2.15;69.96
59417;BME280;45222;52.458;20.914;2023-02-23T02:15:47;101201.89;;;-2.06;69.78
59417;BME280;45222;52.458;20.914;2023-02-23T02:20:06;101200.64;;;-1.97;69.19
59417;BME280;45222;52.458;20.914;2023-02-23T02:24:22;101201.77;;;-1.92;69.31
59417;BME280;45222;52.458;20.914;2023-02-23T02:28:40;101195.67;;;-1.92;69.30
59417;BME280;45222;52.458;20.914;2023-02-23T02:36:57;101190.95;;;-1.93;69.31
59417;BME280;45222;52.458;20.914;2023-02-23T02:40:55;101189.87;;;-1.94;69.29
59417;BME280;45222;52.458;20.914;2023-02-23T02:44:50;101185.64;;;-1.97;69.34
59417;BME280;45222;52.458;20.914;2023-02-23T02:48:39;101184.08;;;-1.97;69.24
59417;BME280;45222;52.458;20.914;2023-02-23T02:52:32;101179.86;;;-2.00;69.38
59417;BME280;45222;52.458;20.914;2023-02-23T02:56:21;101178.77;;;-2.02;69.34
59417;BME280;45222;52.458;20.914;2023-02-23T03:00:14;101176.93;;;-2.08;69.34
59417;BME280;45222;52.458;20.914;2023-02-23T03:04:21;101175.83;;;-2.11;69.63
59417;BME280;45222;52.458;20.914;2023-02-23T03:08:31;101176.80;;;-2.17;69.75
59417;BME280;45222;52.458;20.914;2023-02-23T03:12:42;101176.30;;;-2.14;70.29
59417;BME280;45222;52.458;20.914;2023-02-23T03:16:55;101176.45;;;-2.17;70.48
59417;BME280;45222;52.458;20.914;2023-02-23T03:21:06;101182.53;;;-2.17;70.64
59417;BME280;45222;52.458;20.914;2023-02-23T03:25:17;101181.48;;;-2.18;70.52
59417;BME280;45222;52.458;20.914;2023-02-23T03:29:31;101183.54;;;-2.20;70.38
59417;BME280;45222;52.458;20.914;2023-02-23T03:33:39;101186.41;;;-2.25;70.59
59417;BME280;45222;52.458;20.914;2023-02-23T03:37:49;101191.79;;;-2.27;70.82
59417;BME280;45222;52.458;20.914;2023-02-23T03:41:54;101190.02;;;-2.28;71.15
59417;BME280;45222;52.458;20.914;2023-02-23T03:45:59;101191.23;;;-2.28;71.23
59417;BME280;45222;52.458;20.914;2023-02-23T03:50:06;101189.89;;;-2.25;70.83
59417;BME280;45222;52.458;20.914;2023-02-23T03:54:14;101187.05;;;-2.28;70.93
59417;BME280;45222;52.458;20.914;2023-02-23T03:58:23;101188.65;;;-2.26;71.14
59417;BME280;45222;52.458;20.914;2023-02-23T04:02:30;101189.55;;;-2.25;71.29
59417;BME280;45222;52.458;20.914;2023-02-23T04:06:41;101191.02;;;-2.20;71.36
59417;BME280;45222;52.458;20.914;2023-02-23T04:11:20;101190.52;;;-2.08;71.85
59417;BME280;45222;52.458;20.914;2023-02-23T04:15:29;101191.39;;;-1.97;72.10
59417;BME280;45222;52.458;20.914;2023-02-23T04:19:15;101189.58;;;-1.91;71.96
59417;BME280;45222;52.458;20.914;2023-02-23T04:23:00;101193.77;;;-1.91;71.55
59417;BME280;45222;52.458;20.914;2023-02-23T04:26:45;101195.52;;;-1.91;71.49
59417;BME280;45222;52.458;20.914;2023-02-23T04:30:30;101192.33;;;-1.94;71.52
59417;BME280;45222;52.458;20.914;2023-02-23T04:34:16;101184.04;;;-2.00;71.49
59417;BME280;45222;52.458;20.914;2023-02-23T04:38:01;101181.65;;;-2.07;71.42
59417;BME280;45222;52.458;20.914;2023-02-23T04:41:46;101185.34;;;-2.17;71.50
59417;BME280;45222;52.458;20.914;2023-02-23T04:45:32;101179.40;;;-2.27;71.63
59417;BME280;45222;52.458;20.914;2023-02-23T04:49:17;101179.41;;;-2.36;71.99
59417;BME280;45222;52.458;20.914;2023-02-23T04:53:02;101180.84;;;-2.45;72.00
59417;BME280;45222;52.458;20.914;2023-02-23T04:56:47;101181.77;;;-2.51;72.21
59417;BME280;45222;52.458;20.914;2023-02-23T05:00:32;101183.17;;;-2.50;72.08
59417;BME280;45222;52.458;20.914;2023-02-23T05:04:17;101181.27;;;-2.50;72.65
59417;BME280;45222;52.458;20.914;2023-02-23T05:08:02;101178.44;;;-2.43;73.06
59417;BME280;45222;52.458;20.914;2023-02-23T05:11:47;101173.02;;;-2.33;73.31
59417;BME280;45222;52.458;20.914;2023-02-23T05:15:32;101170.52;;;-2.27;73.45
59417;BME280;45222;52.458;20.914;2023-02-23T05:19:17;101163.45;;;-2.23;73.30
59417;BME280;45222;52.458;20.914;2023-02-23T05:23:03;101161.44;;;-2.18;73.21
59417;BME280;45222;52.458;20.914;2023-02-23T05:26:48;101157.27;;;-2.17;73.24
59417;BME280;45222;52.458;20.914;2023-02-23T05:30:33;101162.59;;;-2.11;73.30
59417;BME280;45222;52.458;20.914;2023-02-23T05:34:19;101163.82;;;-2.10;73.41
59417;BME280;45222;52.458;20.914;2023-02-23T05:38:04;101161.50;;;-2.13;73.28
59417;BME280;45222;52.458;20.914;2023-02-23T05:41:49;101158.30;;;-2.18;73.61
59417;BME280;45222;52.458;20.914;2023-02-23T05:45:39;101164.75;;;-2.18;73.44
59417;BME280;45222;52.458;20.914;2023-02-23T05:49:25;101163.90;;;-2.16;73.51
59417;BME280;45222;52.458;20.914;2023-02-23T05:53:10;101170.61;;;-2.11;73.93
59417;BME280;45222;52.458;20.914;2023-02-23T05:56:55;101174.95;;;-2.01;74.49
59417;BME280;45222;52.458;20.914;2023-02-23T06:00:40;101178.36;;;-1.95;74.61
59417;BME280;45222;52.458;20.914;2023-02-23T06:04:25;101175.98;;;-1.91;74.54
59417;BME280;45222;52.458;20.914;2023-02-23T06:08:10;101176.21;;;-1.87;74.44
59417;BME280;45222;52.458;20.914;2023-02-23T06:11:56;101179.05;;;-1.84;74.34
59417;BME280;45222;52.458;20.914;2023-02-23T06:15:43;101182.38;;;-1.83;74.39
59417;BME280;45222;52.458;20.914;2023-02-23T06:19:28;101182.63;;;-1.78;74.62
59417;BME280;45222;52.458;20.914;2023-02-23T06:23:15;101185.14;;;-1.74;74.42
59417;BME280;45222;52.458;20.914;2023-02-23T06:27:00;101182.61;;;-1.67;74.72
59417;BME280;45222;52.458;20.914;2023-02-23T06:30:45;101184.66;;;-1.58;75.13
59417;BME280;45222;52.458;20.914;2023-02-23T06:34:30;101185.16;;;-1.48;74.98
59417;BME280;45222;52.458;20.914;2023-02-23T06:38:17;101185.57;;;-1.43;74.97
59417;BME280;45222;52.458;20.914;2023-02-23T06:42:02;101179.88;;;-1.39;74.57
59417;BME280;45222;52.458;20.914;2023-02-23T06:45:48;101179.42;;;-1.34;74.39
59417;BME280;45222;52.458;20.914;2023-02-23T06:49:33;101183.98;;;-1.32;74.23
59417;BME280;45222;52.458;20.914;2023-02-23T06:53:18;101181.03;;;-1.31;74.26
59417;BME280;45222;52.458;20.914;2023-02-23T06:57:03;101177.91;;;-1.29;74.24
59417;BME280;45222;52.458;20.914;2023-02-23T07:00:48;101182.00;;;-1.23;73.93
59417;BME280;45222;52.458;20.914;2023-02-23T07:04:34;101183.65;;;-1.18;74.28
59417;BME280;45222;52.458;20.914;2023-02-23T07:08:19;101183.08;;;-1.07;74.47
59417;BME280;45222;52.458;20.914;2023-02-23T07:12:04;101183.22;;;-0.95;74.75
59417;BME280;45222;52.458;20.914;2023-02-23T07:15:55;101178.83;;;-0.82;74.58
59417;BME280;45222;52.458;20.914;2023-02-23T07:19:40;101174.95;;;-0.70;74.39
59417;BME280;45222;52.458;20.914;2023-02-23T07:23:25;101170.17;;;-0.58;74.14
59417;BME280;45222;52.458;20.914;2023-02-23T07:27:11;101170.78;;;-0.50;73.75
59417;BME280;45222;52.458;20.914;2023-02-23T07:30:57;101168.41;;;-0.41;73.46
59417;BME280;45222;52.458;20.914;2023-02-23T07:34:42;101166.75;;;-0.32;73.34
59417;BME280;45222;52.458;20.914;2023-02-23T07:38:28;101164.56;;;-0.22;73.55
59417;BME280;45222;52.458;20.914;2023-02-23T07:42:13;101157.02;;;-0.03;73.65
59417;BME280;45222;52.458;20.914;2023-02-23T07:45:59;101153.48;;;0.14;72.93
59417;BME280;45222;52.458;20.914;2023-02-23T07:49:45;101146.37;;;0.22;72.61
59417;BME280;45222;52.458;20.914;2023-02-23T07:53:30;101141.86;;;0.29;72.32
59417;BME280;45222;52.458;20.914;2023-02-23T07:57:15;101135.95;;;0.37;72.23
59417;BME280;45222;52.458;20.914;2023-02-23T08:01:00;101131.29;;;0.46;71.97
59417;BME280;45222;52.458;20.914;2023-02-23T08:04:45;101133.44;;;0.57;71.23
59417;BME280;45222;52.458;20.914;2023-02-23T08:08:31;101126.29;;;0.63;71.38
59417;BME280;45222;52.458;20.914;2023-02-23T08:12:17;101119.52;;;0.74;71.10
59417;BME280;45222;52.458;20.914;2023-02-23T08:16:02;101114.66;;;0.88;71.04
59417;BME280;45222;52.458;20.914;2023-02-23T08:19:47;101113.27;;;0.93;71.17
59417;BME280;45222;52.458;20.914;2023-02-23T08:23:33;101109.95;;;0.97;71.18
59417;BME280;45222;52.458;20.914;2023-02-23T08:27:19;101112.09;;;1.03;70.71
59417;BME280;45222;52.458;20.914;2023-02-23T08:31:08;101111.92;;;1.13;70.01
59417;BME280;45222;52.458;20.914;2023-02-23T08:34:54;101110.37;;;1.18;69.63
59417;BME280;45222;52.458;20.914;2023-02-23T08:38:41;101105.29;;;1.23;69.56
59417;BME280;45222;52.458;20.914;2023-02-23T08:42:26;101099.88;;;1.34;69.54
59417;BME280;45222;52.458;20.914;2023-02-23T08:46:12;101103.55;;;1.43;68.57
59417;BME280;45222;52.458;20.914;2023-02-23T08:49:57;101103.58;;;1.44;68.81
59417;BME280;45222;52.458;20.914;2023-02-23T08:53:43;101098.66;;;1.56;68.79
59417;BME280;45222;52.458;20.914;2023-02-23T08:57:28;101091.83;;;1.73;69.19
59417;BME280;45222;52.458;20.914;2023-02-23T09:01:18;101091.45;;;1.92;69.15
59417;BME280;45222;52.458;20.914;2023-02-23T09:05:07;101082.34;;;2.00;68.12
59417;BME280;45222;52.458;20.914;2023-02-23T09:08:53;101081.11;;;1.95;67.61
59417;BME280;45222;52.458;20.914;2023-02-23T09:12:39;101083.04;;;1.91;67.13
59417;BME280;45222;52.458;20.914;2023-02-23T09:16:24;101081.81;;;1.83;67.55
59417;BME280;45222;52.458;20.914;2023-02-23T09:20:12;101071.30;;;1.85;67.16
59417;BME280;45222;52.458;20.914;2023-02-23T09:23:58;101063.05;;;1.90;67.42
59417;BME280;45222;52.458;20.914;2023-02-23T09:27:43;101053.91;;;1.98;67.41
59417;BME280;45222;52.458;20.914;2023-02-23T09:31:28;101052.83;;;2.07;67.47
59417;BME280;45222;52.458;20.914;2023-02-23T09:35:14;101051.21;;;2.24;67.39
59417;BME280;45222;52.458;20.914;2023-02-23T09:39:01;101046.08;;;2.38;67.11
59417;BME280;45222;52.458;20.914;2023-02-23T09:42:54;101043.91;;;2.51;66.81
59417;BME280;45222;52.458;20.914;2023-02-23T09:46:52;101037.38;;;2.60;66.55
59417;BME280;45222;52.458;20.914;2023-02-23T09:50:45;101030.81;;;2.70;66.44
59417;BME280;45222;52.458;20.914;2023-02-23T09:54:33;101031.45;;;2.83;66.48
59417;BME280;45222;52.458;20.914;2023-02-23T09:58:22;101029.47;;;2.92;66.01
59417;BME280;45222;52.458;20.914;2023-02-23T10:02:17;101024.33;;;2.99;65.65
59417;BME280;45222;52.458;20.914;2023-02-23T10:06:09;101021.77;;;3.11;65.62
59417;BME280;45222;52.458;20.914;2023-02-23T10:10:06;101017.11;;;3.25;66.07
59417;BME280;45222;52.458;20.914;2023-02-23T10:14:09;101010.75;;;3.50;66.71
59417;BME280;45222;52.458;20.914;2023-02-23T10:18:11;101003.09;;;3.77;66.59
59417;BME280;45222;52.458;20.914;2023-02-23T10:22:03;100998.66;;;3.97;64.93
59417;BME280;45222;52.458;20.914;2023-02-23T10:25:51;100989.27;;;4.03;64.79
59417;BME280;45222;52.458;20.914;2023-02-23T10:29:46;100981.57;;;4.14;64.09
59417;BME280;45222;52.458;20.914;2023-02-23T10:33:36;100977.30;;;4.19;63.97
59417;BME280;45222;52.458;20.914;2023-02-23T10:37:28;100976.98;;;4.29;63.79
59417;BME280;45222;52.458;20.914;2023-02-23T10:41:15;100972.16;;;4.35;63.71
59417;BME280;45222;52.458;20.914;2023-02-23T10:45:00;100968.29;;;4.48;64.15
59417;BME280;45222;52.458;20.914;2023-02-23T10:48:46;100958.65;;;4.57;63.42
59417;BME280;45222;52.458;20.914;2023-02-23T10:52:33;100949.92;;;4.63;63.01
59417;BME280;45222;52.458;20.914;2023-02-23T10:56:23;100944.91;;;4.68;62.75
59417;BME280;45222;52.458;20.914;2023-02-23T11:00:24;100932.00;;;4.73;62.00
59417;BME280;45222;52.458;20.914;2023-02-23T11:04:19;100926.21;;;4.71;62.35
59417;BME280;45222;52.458;20.914;2023-02-23T11:08:20;100918.25;;;4.74;62.42
59417;BME280;45222;52.458;20.914;2023-02-23T11:12:17;100912.35;;;4.79;62.48
59417;BME280;45222;52.458;20.914;2023-02-23T11:16:08;100906.59;;;4.86;61.67
59417;BME280;45222;52.458;20.914;2023-02-23T11:19:59;100897.67;;;4.92;61.87
59417;BME280;45222;52.458;20.914;2023-02-23T11:23:45;100893.19;;;4.97;61.92
59417;BME280;45222;52.458;20.914;2023-02-23T11:27:33;100892.91;;;4.93;61.58
59417;BME280;45222;52.458;20.914;2023-02-23T11:31:20;100885.97;;;4.86;61.69
59417;BME280;45222;52.458;20.914;2023-02-23T11:35:30;100883.88;;;4.85;61.73
59417;BME280;45222;52.458;20.914;2023-02-23T11:39:19;100879.22;;;4.89;61.43
59417;BME280;45222;52.458;20.914;2023-02-23T11:43:08;100871.95;;;4.81;61.17
59417;BME280;45222;52.458;20.914;2023-02-23T11:46:58;100863.34;;;4.80;61.52
59417;BME280;45222;52.458;20.914;2023-02-23T11:50:48;100853.15;;;4.78;61.26
59417;BME280;45222;52.458;20.914;2023-02-23T11:54:34;100855.10;;;4.77;61.79
59417;BME280;45222;52.458;20.914;2023-02-23T11:58:23;100847.48;;;4.80;61.80
59417;BME280;45222;52.458;20.914;2023-02-23T12:02:21;100840.81;;;4.78;61.67
59417;BME280;45222;52.458;20.914;2023-02-23T12:06:07;100835.78;;;4.74;61.83
59417;BME280;45222;52.458;20.914;2023-02-23T12:10:02;100831.20;;;4.83;62.03
59417;BME280;45222;52.458;20.914;2023-02-23T12:13:55;100828.72;;;4.94;61.89
59417;BME280;45222;52.458;20.914;2023-02-23T12:17:49;100814.55;;;4.99;61.95
59417;BME280;45222;52.458;20.914;2023-02-23T12:21:39;100804.36;;;5.06;61.93
59417;BME280;45222;52.458;20.914;2023-02-23T12:25:29;100801.44;;;5.11;61.56
59417;BME280;45222;52.458;20.914;2023-02-23T12:29:30;100792.27;;;5.21;61.81
59417;BME280;45222;52.458;20.914;2023-02-23T12:33:21;100787.36;;;5.37;61.51
59417;BME280;45222;52.458;20.914;2023-02-23T12:37:23;100782.22;;;5.47;60.96
59417;BME280;45222;52.458;20.914;2023-02-23T12:41:13;100778.81;;;5.50;60.55
59417;BME280;45222;52.458;20.914;2023-02-23T12:45:04;100775.11;;;5.50;60.49
59417;BME280;45222;52.458;20.914;2023-02-23T12:48:56;100767.08;;;5.54;61.04
59417;BME280;45222;52.458;20.914;2023-02-23T12:52:48;100765.36;;;5.60;60.64
59417;BME280;45222;52.458;20.914;2023-02-23T12:56:49;100760.89;;;5.63;60.93
59417;BME280;45222;52.458;20.914;2023-02-23T13:00:46;100757.77;;;5.68;60.67
59417;BME280;45222;52.458;20.914;2023-02-23T13:05:04;100752.70;;;5.67;60.62
59417;BME280;45222;52.458;20.914;2023-02-23T13:09:07;100743.46;;;5.61;60.16
59417;BME280;45222;52.458;20.914;2023-02-23T13:13:04;100733.45;;;5.59;60.62
59417;BME280;45222;52.458;20.914;2023-02-23T13:17:03;100731.02;;;5.58;60.51
59417;BME280;45222;52.458;20.914;2023-02-23T13:20:55;100723.37;;;5.60;60.34
59417;BME280;45222;52.458;20.914;2023-02-23T13:24:47;100721.58;;;5.54;60.29
59417;BME280;45222;52.458;20.914;2023-02-23T13:28:41;100718.95;;;5.53;60.28
59417;BME280;45222;52.458;20.914;2023-02-23T13:32:33;100707.17;;;5.51;59.84
59417;BME280;45222;52.458;20.914;2023-02-23T13:36:21;100699.36;;;5.45;59.86
59417;BME280;45222;52.458;20.914;2023-02-23T13:40:23;100693.73;;;5.45;60.13
59417;BME280;45222;52.458;20.914;2023-02-23T13:44:19;100687.91;;;5.53;60.22
59417;BME280;45222;52.458;20.914;2023-02-23T13:48:17;100678.89;;;5.61;60.04
59417;BME280;45222;52.458;20.914;2023-02-23T13:52:15;100675.80;;;5.65;59.53
59417;BME280;45222;52.458;20.914;2023-02-23T13:56:06;100672.16;;;5.78;59.98
59417;BME280;45222;52.458;20.914;2023-02-23T13:59:52;100668.23;;;5.87;59.89
59417;BME280;45222;52.458;20.914;2023-02-23T14:03:43;100663.08;;;5.88;59.53
59417;BME280;45222;52.458;20.914;2023-02-23T14:07:31;100655.88;;;5.87;59.48
59417;BME280;45222;52.458;20.914;2023-02-23T14:11:37;100656.27;;;5.85;59.51
59417;BME280;45222;52.458;20.914;2023-02-23T14:15:42;100652.55;;;5.79;59.54
59417;BME280;45222;52.458;20.914;2023-02-23T14:19:35;100647.34;;;5.74;59.59
59417;BME280;45222;52.458;20.914;2023-02-23T14:23:34;100644.36;;;5.66;59.67
59417;BME280;45222;52.458;20.914;2023-02-23T14:27:20;100647.02;;;5.67;60.18
59417;BME280;45222;52.458;20.914;2023-02-23T14:31:18;100648.42;;;5.66;60.30
59417;BME280;45222;52.458;20.914;2023-02-23T14:35:04;100645.40;;;5.67;60.20
59417;BME280;45222;52.458;20.914;2023-02-23T14:38:51;100644.75;;;5.65;60.58
59417;BME280;45222;52.458;20.914;2023-02-23T14:42:49;100642.23;;;5.59;60.71
59417;BME280;45222;52.458;20.914;2023-02-23T14:46:35;100640.27;;;5.53;60.39
59417;BME280;45222;52.458;20.914;2023-02-23T14:50:26;100631.18;;;5.41;60.58
59417;BME280;45222;52.458;20.914;2023-02-23T14:54:19;100630.54;;;5.31;60.70
59417;BME280;45222;52.458;20.914;2023-02-23T14:58:21;100629.14;;;5.22;60.79
59417;BME280;45222;52.458;20.914;2023-02-23T15:02:11;100623.17;;;5.13;61.00
59417;BME280;45222;52.458;20.914;2023-02-23T15:05:58;100621.18;;;4.98;61.00
59417;BME280;45222;52.458;20.914;2023-02-23T15:09:45;100617.25;;;4.85;61.24
59417;BME280;45222;52.458;20.914;2023-02-23T15:13:32;100610.98;;;4.73;61.40
59417;BME280;45222;52.458;20.914;2023-02-23T15:17:21;100601.91;;;4.60;61.70
59417;BME280;45222;52.458;20.914;2023-02-23T15:21:09;100592.65;;;4.47;61.86
59417;BME280;45222;52.458;20.914;2023-02-23T15:24:58;100586.77;;;4.33;62.20
59417;BME280;45222;52.458;20.914;2023-02-23T15:28:45;100581.52;;;4.21;62.48
59417;BME280;45222;52.458;20.914;2023-02-23T15:32:31;100577.34;;;4.09;62.65
59417;BME280;45222;52.458;20.914;2023-02-23T15:36:25;100573.14;;;3.99;62.90
59417;BME280;45222;52.458;20.914;2023-02-23T15:40:13;100570.34;;;3.87;63.32
59417;BME280;45222;52.458;20.914;2023-02-23T15:44:06;100565.27;;;3.75;63.46
59417;BME280;45222;52.458;20.914;2023-02-23T15:47:55;100562.98;;;3.65;63.86
59417;BME280;45222;52.458;20.914;2023-02-23T15:51:43;100562.10;;;3.55;64.34
59417;BME280;45222;52.458;20.914;2023-02-23T15:55:35;100556.47;;;3.44;64.36
59417;BME280;45222;52.458;20.914;2023-02-23T15:59:25;100548.16;;;3.36;65.23
59417;BME280;45222;52.458;20.914;2023-02-23T16:03:23;100536.11;;;3.31;66.08
59417;BME280;45222;52.458;20.914;2023-02-23T16:07:16;100531.48;;;3.24;66.16
59417;BME280;45222;52.458;20.914;2023-02-23T16:11:09;100539.11;;;3.18;65.93
59417;BME280;45222;52.458;20.914;2023-02-23T16:14:58;100540.29;;;3.11;66.20
59417;BME280;45222;52.458;20.914;2023-02-23T16:18:45;100544.98;;;3.02;66.31
59417;BME280;45222;52.458;20.914;2023-02-23T16:22:31;100548.84;;;2.90;66.57
59417;BME280;45222;52.458;20.914;2023-02-23T16:26:19;100547.56;;;2.80;66.66
59417;BME280;45222;52.458;20.914;2023-02-23T16:30:18;100549.49;;;2.67;67.03
59417;BME280;45222;52.458;20.914;2023-02-23T16:34:20;100544.89;;;2.56;67.49
59417;BME280;45222;52.458;20.914;2023-02-23T16:38:12;100538.05;;;2.42;67.85
59417;BME280;45222;52.458;20.914;2023-02-23T16:41:58;100529.97;;;2.28;68.16
59417;BME280;45222;52.458;20.914;2023-02-23T16:45:44;100524.80;;;2.18;68.67
59417;BME280;45222;52.458;20.914;2023-02-23T16:49:30;100520.69;;;2.11;69.24
59417;BME280;45222;52.458;20.914;2023-02-23T16:53:16;100514.95;;;2.07;69.68
59417;BME280;45222;52.458;20.914;2023-02-23T16:57:02;100506.40;;;2.03;69.77
59417;BME280;45222;52.458;20.914;2023-02-23T17:00:49;100502.89;;;2.02;69.89
59417;BME280;45222;52.458;20.914;2023-02-23T17:04:35;100505.23;;;1.97;69.99
59417;BME280;45222;52.458;20.914;2023-02-23T17:08:20;100505.32;;;1.89;70.24
59417;BME280;45222;52.458;20.914;2023-02-23T17:12:07;100498.89;;;1.83;69.99
59417;BME280;45222;52.458;20.914;2023-02-23T17:15:55;100492.65;;;1.76;70.02
59417;BME280;45222;52.458;20.914;2023-02-23T17:19:40;100490.66;;;1.65;70.56
59417;BME280;45222;52.458;20.914;2023-02-23T17:23:28;100491.80;;;1.55;70.65
59417;BME280;45222;52.458;20.914;2023-02-23T17:27:21;100489.06;;;1.49;70.63
59417;BME280;45222;52.458;20.914;2023-02-23T17:31:06;100485.77;;;1.44;71.20
59417;BME280;45222;52.458;20.914;2023-02-23T17:34:52;100477.06;;;1.39;71.62
59417;BME280;45222;52.458;20.914;2023-02-23T17:38:37;100467.91;;;1.42;72.31
59417;BME280;45222;52.458;20.914;2023-02-23T17:42:22;100464.42;;;1.40;72.27
59417;BME280;45222;52.458;20.914;2023-02-23T17:46:22;100456.56;;;1.38;72.42
59417;BME280;45222;52.458;20.914;2023-02-23T17:50:10;100445.05;;;1.31;72.21
59417;BME280;45222;52.458;20.914;2023-02-23T17:53:55;100437.79;;;1.22;72.26
59417;BME280;45222;52.458;20.914;2023-02-23T17:57:41;100428.94;;;1.12;72.41
59417;BME280;45222;52.458;20.914;2023-02-23T18:01:27;100424.96;;;1.06;72.43
59417;BME280;45222;52.458;20.914;2023-02-23T18:05:13;100421.65;;;1.04;72.45
59417;BME280;45222;52.458;20.914;2023-02-23T18:08:58;100412.73;;;1.02;72.50
59417;BME280;45222;52.458;20.914;2023-02-23T18:12:44;100406.35;;;1.11;73.29
59417;BME280;45222;52.458;20.914;2023-02-23T18:16:29;100401.75;;;1.16;73.40
59417;BME280;45222;52.458;20.914;2023-02-23T18:20:17;100400.46;;;1.22;73.62
59417;BME280;45222;52.458;20.914;2023-02-23T18:24:02;100399.22;;;1.24;73.30
59417;BME280;45222;52.458;20.914;2023-02-23T18:27:50;100394.84;;;1.24;73.26
59417;BME280;45222;52.458;20.914;2023-02-23T18:31:37;100396.45;;;1.21;73.23
59417;BME280;45222;52.458;20.914;2023-02-23T18:35:22;100398.57;;;1.19;73.21
59417;BME280;45222;52.458;20.914;2023-02-23T18:39:07;100392.66;;;1.14;73.44
59417;BME280;45222;52.458;20.914;2023-02-23T18:42:54;100389.72;;;1.11;73.42
59417;BME280;45222;52.458;20.914;2023-02-23T18:46:39;100385.21;;;1.05;73.50
59417;BME280;45222;52.458;20.914;2023-02-23T18:50:25;100378.75;;;1.03;73.88
59417;BME280;45222;52.458;20.914;2023-02-23T18:54:10;100376.08;;;1.09;74.34
59417;BME280;45222;52.458;20.914;2023-02-23T18:58:00;100369.29;;;1.05;74.42
59417;BME280;45222;52.458;20.914;2023-02-23T19:01:46;100369.29;;;1.03;74.34
59417;BME280;45222;52.458;20.914;2023-02-23T19:05:34;100361.77;;;1.02;74.11
59417;BME280;45222;52.458;20.914;2023-02-23T19:09:21;100356.73;;;0.96;74.26
59417;BME280;45222;52.458;20.914;2023-02-23T19:13:06;100350.48;;;0.91;74.22
59417;BME280;45222;52.458;20.914;2023-02-23T19:16:52;100346.73;;;0.80;74.59
59417;BME280;45222;52.458;20.914;2023-02-23T19:20:37;100340.14;;;0.74;74.49
59417;BME280;45222;52.458;20.914;2023-02-23T19:24:22;100336.73;;;0.64;74.69
59417;BME280;45222;52.458;20.914;2023-02-23T19:28:08;100334.27;;;0.65;74.98
59417;BME280;45222;52.458;20.914;2023-02-23T19:31:53;100324.45;;;0.67;75.22
59417;BME280;45222;52.458;20.914;2023-02-23T19:35:39;100324.44;;;0.68;75.21
59417;BME280;45222;52.458;20.914;2023-02-23T19:39:24;100319.89;;;0.67;75.45
59417;BME280;45222;52.458;20.914;2023-02-23T19:43:10;100312.29;;;0.56;75.61
59417;BME280;45222;52.458;20.914;2023-02-23T19:46:56;100301.15;;;0.49;75.53
59417;BME280;45222;52.458;20.914;2023-02-23T19:50:45;100292.79;;;0.43;75.46
59417;BME280;45222;52.458;20.914;2023-02-23T19:54:31;100287.23;;;0.39;75.83
59417;BME280;45222;52.458;20.914;2023-02-23T19:58:24;100280.56;;;0.41;76.22
59417;BME280;45222;52.458;20.914;2023-02-23T20:02:11;100274.21;;;0.47;76.47
59417;BME280;45222;52.458;20.914;2023-02-23T20:05:56;100265.95;;;0.52;76.46